createdAt,value
2024-04-14T00:00:08.080Z,12.51
2024-04-14T00:02:11.208Z,12.49
2024-04-14T00:04:14.534Z,12.50
2024-04-14T00:06:17.699Z,12.52
2024-04-14T00:08:20.824Z,12.54
2024-04-14T00:10:23.878Z,12.57
2024-04-14T00:12:27.060Z,12.55
2024-04-14T00:14:30.185Z,12.52
2024-04-14T00:16:33.343Z,12.53
2024-04-14T00:18:36.549Z,12.55
2024-04-14T00:20:39.914Z,12.52
2024-04-14T00:22:43.027Z,12.49
2024-04-14T00:24:46.232Z,12.44
2024-04-14T00:26:51.613Z,12.41
2024-04-14T00:28:54.783Z,12.38
2024-04-14T00:30:57.890Z,12.32
2024-04-14T00:33:01.168Z,12.32
2024-04-14T00:35:04.726Z,12.32
2024-04-14T00:37:07.824Z,12.28
2024-04-14T00:39:14.171Z,12.24
2024-04-14T00:41:17.530Z,12.18
2024-04-14T00:43:20.971Z,12.09
2024-04-14T00:45:24.072Z,12.04
2024-04-14T00:47:27.974Z,11.98
2024-04-14T00:49:32.756Z,11.95
2024-04-14T00:51:37.480Z,11.88
2024-04-14T00:53:41.178Z,11.86
2024-04-14T00:55:47.463Z,11.81
2024-04-14T00:57:50.926Z,11.79
2024-04-14T00:59:55.421Z,11.76
2024-04-14T01:01:58.530Z,11.71
2024-04-14T01:04:01.781Z,11.75
2024-04-14T01:06:05.183Z,11.70
2024-04-14T01:08:08.953Z,11.71
2024-04-14T01:10:12.569Z,11.70
2024-04-14T01:12:15.722Z,11.70
2024-04-14T01:14:19.926Z,11.73
2024-04-14T01:16:23.047Z,11.73
2024-04-14T01:18:26.225Z,11.71
2024-04-14T01:20:30.122Z,11.66
2024-04-14T01:22:33.212Z,11.64
2024-04-14T01:24:36.355Z,11.64
2024-04-14T01:26:39.620Z,11.65
2024-04-14T01:28:42.695Z,11.63
2024-04-14T01:30:46.060Z,11.64
2024-04-14T01:32:49.202Z,11.64
2024-04-14T01:34:52.328Z,11.60
2024-04-14T01:36:55.455Z,11.63
2024-04-14T01:38:58.552Z,11.60
2024-04-14T01:41:02.819Z,11.54
2024-04-14T01:43:06.061Z,11.52
2024-04-14T01:45:12.311Z,11.51
2024-04-14T01:47:15.421Z,11.43
2024-04-14T01:49:18.554Z,11.36
2024-04-14T01:51:21.710Z,11.36
2024-04-14T01:53:24.824Z,11.34
2024-04-14T01:55:27.924Z,11.34
2024-04-14T01:57:31.115Z,11.33
2024-04-14T01:59:35.800Z,11.31
2024-04-14T02:01:38.908Z,11.28
2024-04-14T02:03:44.061Z,11.28
2024-04-14T02:05:47.247Z,11.26
2024-04-14T02:07:50.307Z,11.25
2024-04-14T02:09:53.468Z,11.23
2024-04-14T02:11:56.608Z,11.23
2024-04-14T02:14:00.423Z,11.22
2024-04-14T02:16:04.279Z,11.22
2024-04-14T02:18:07.696Z,11.22
2024-04-14T02:20:13.811Z,11.23
2024-04-14T02:22:16.866Z,11.23
2024-04-14T02:24:19.942Z,11.24
2024-04-14T02:26:23.165Z,11.21
2024-04-14T02:28:26.385Z,11.17
2024-04-14T02:30:29.580Z,11.11
2024-04-14T02:32:32.712Z,11.07
2024-04-14T02:34:35.839Z,11.06
2024-04-14T02:36:38.910Z,11.05
2024-04-14T02:38:42.026Z,11.06
2024-04-14T02:40:45.111Z,11.03
2024-04-14T02:42:48.251Z,11.00
2024-04-14T02:44:51.396Z,11.01
2024-04-14T02:46:54.503Z,11.01
2024-04-14T02:48:57.694Z,11.00
2024-04-14T02:51:00.875Z,11.00
2024-04-14T02:53:03.942Z,11.01
2024-04-14T02:55:07.889Z,11.01
2024-04-14T02:57:11.022Z,10.99
2024-04-14T02:59:14.089Z,10.98
2024-04-14T03:01:19.229Z,10.97
2024-04-14T03:03:22.454Z,10.96
2024-04-14T03:05:25.639Z,10.93
2024-04-14T03:07:30.459Z,10.90
2024-04-14T03:09:33.562Z,10.88
2024-04-14T03:11:36.644Z,10.84
2024-04-14T03:13:39.814Z,10.80
2024-04-14T03:15:42.926Z,10.77
2024-04-14T03:17:46.146Z,10.78
2024-04-14T03:19:54.450Z,10.79
2024-04-14T03:21:57.583Z,10.82
2024-04-14T03:24:00.722Z,10.80
2024-04-14T03:26:03.817Z,10.78
2024-04-14T03:28:10.266Z,10.79
2024-04-14T03:30:13.930Z,10.78
2024-04-14T03:32:17.114Z,10.76
2024-04-14T03:34:20.212Z,10.77
2024-04-14T03:36:23.924Z,10.74
2024-04-14T03:38:27.040Z,10.68
2024-04-14T03:40:30.096Z,10.61
2024-04-14T03:42:36.302Z,10.57
2024-04-14T03:44:39.392Z,10.52
2024-04-14T03:46:42.449Z,10.50
2024-04-14T03:48:45.707Z,10.50
2024-04-14T03:50:49.032Z,10.55
2024-04-14T03:52:52.183Z,10.56
2024-04-14T03:54:55.378Z,10.44
2024-04-14T03:56:58.504Z,10.41
2024-04-14T03:59:01.618Z,10.39
2024-04-14T04:01:04.783Z,10.39
2024-04-14T04:03:08.448Z,10.37
2024-04-14T04:05:11.506Z,10.39
2024-04-14T04:07:14.626Z,10.39
2024-04-14T04:09:17.737Z,10.39
2024-04-14T04:11:20.875Z,10.39
2024-04-14T04:13:23.966Z,10.38
2024-04-14T04:15:27.055Z,10.38
2024-04-14T04:17:30.221Z,10.39
2024-04-14T04:19:33.404Z,10.39
2024-04-14T04:21:36.597Z,10.38
2024-04-14T04:23:39.796Z,10.38
2024-04-14T04:25:42.856Z,10.39
2024-04-14T04:27:45.970Z,10.38
2024-04-14T04:29:49.192Z,10.38
2024-04-14T04:31:52.267Z,10.35
2024-04-14T04:33:55.488Z,10.33
2024-04-14T04:36:00.317Z,10.31
2024-04-14T04:38:03.408Z,10.27
2024-04-14T04:40:06.769Z,10.28
2024-04-14T04:42:09.871Z,10.31
2024-04-14T04:44:13.729Z,10.32
2024-04-14T04:46:16.826Z,10.30
2024-04-14T04:48:20.229Z,10.27
2024-04-14T04:50:23.496Z,10.27
2024-04-14T04:52:26.578Z,10.24
2024-04-14T04:54:29.704Z,10.24
2024-04-14T04:56:32.779Z,10.26
2024-04-14T04:58:35.847Z,10.26
2024-04-14T05:00:39.398Z,10.29
2024-04-14T05:02:42.674Z,10.28
2024-04-14T05:04:45.783Z,10.31
2024-04-14T05:06:48.987Z,10.38
2024-04-14T05:08:52.433Z,10.42
2024-04-14T05:10:56.598Z,10.45
2024-04-14T05:12:59.780Z,10.50
2024-04-14T05:15:06.886Z,10.53
2024-04-14T05:17:09.990Z,10.56
2024-04-14T05:19:13.168Z,10.58
2024-04-14T05:21:16.285Z,10.63
2024-04-14T05:23:19.390Z,10.66
2024-04-14T05:25:22.455Z,10.68
2024-04-14T05:27:25.544Z,10.72
2024-04-14T05:29:29.879Z,10.74
2024-04-14T05:31:33.664Z,10.76
2024-04-14T05:33:37.034Z,10.76
2024-04-14T05:35:40.229Z,10.76
2024-04-14T05:37:43.320Z,10.76
2024-04-14T05:39:46.466Z,10.81
2024-04-14T05:41:49.626Z,10.82
2024-04-14T05:43:52.700Z,10.88
2024-04-14T05:45:56.276Z,10.91
2024-04-14T05:47:59.467Z,10.96
2024-04-14T05:50:02.842Z,11.00
2024-04-14T05:52:07.321Z,11.03
2024-04-14T05:54:10.470Z,11.07
2024-04-14T05:56:13.666Z,11.11
2024-04-14T05:58:16.810Z,11.15
2024-04-14T06:00:19.902Z,11.19
2024-04-14T06:02:23.033Z,11.24
2024-04-14T06:04:26.338Z,11.29
2024-04-14T06:06:29.620Z,11.34
2024-04-14T06:08:32.776Z,11.41
2024-04-14T06:10:35.839Z,11.44
2024-04-14T06:12:39.059Z,11.49
2024-04-14T06:14:42.201Z,11.61
2024-04-14T06:16:45.402Z,11.65
2024-04-14T06:18:48.580Z,11.71
2024-04-14T06:20:51.766Z,11.76
2024-04-14T06:22:54.855Z,11.81
2024-04-14T06:24:58.026Z,11.93
2024-04-14T06:27:01.222Z,12.03
2024-04-14T06:29:04.314Z,12.10
2024-04-14T06:31:07.488Z,12.18
2024-04-14T06:33:10.641Z,12.33
2024-04-14T06:35:13.725Z,12.43
2024-04-14T06:37:17.262Z,12.50
2024-04-14T06:39:20.346Z,12.58
2024-04-14T06:41:23.451Z,12.64
2024-04-14T06:43:26.514Z,12.65
2024-04-14T06:45:29.612Z,12.70
2024-04-14T06:47:35.041Z,12.79
2024-04-14T06:49:38.535Z,12.87
2024-04-14T06:51:41.653Z,12.95
2024-04-14T06:53:44.738Z,13.00
2024-04-14T06:55:48.441Z,13.04
2024-04-14T06:57:51.596Z,13.12
2024-04-14T06:59:54.692Z,13.19
2024-04-14T07:01:58.018Z,13.30
2024-04-14T07:04:01.384Z,13.38
2024-04-14T07:06:05.073Z,13.45
2024-04-14T07:08:08.387Z,13.49
2024-04-14T07:10:11.614Z,13.54
2024-04-14T07:12:14.703Z,13.59
2024-04-14T07:14:17.878Z,13.68
2024-04-14T07:16:21.118Z,13.80
2024-04-14T07:18:24.295Z,13.86
2024-04-14T07:20:27.384Z,13.92
2024-04-14T07:22:30.474Z,13.99
2024-04-14T07:25:04.789Z,17.68
2024-04-14T07:27:09.070Z,15.30
2024-04-14T07:29:12.164Z,15.40
2024-04-14T07:31:15.273Z,15.50
2024-04-14T07:33:18.419Z,15.58
2024-04-14T07:35:21.548Z,15.64
2024-04-14T07:37:24.648Z,15.71
2024-04-14T07:39:27.771Z,15.82
2024-04-14T07:41:32.366Z,15.90
2024-04-14T07:43:35.510Z,16.02
2024-04-14T07:45:38.602Z,16.15
2024-04-14T07:47:44.542Z,16.30
2024-04-14T07:49:48.045Z,16.43
2024-04-14T07:51:51.442Z,16.57
2024-04-14T07:53:54.609Z,16.72
2024-04-14T07:55:57.894Z,16.94
2024-04-14T07:58:01.378Z,17.04
2024-04-14T08:00:06.206Z,17.14
2024-04-14T08:02:09.440Z,17.22
2024-04-14T08:04:12.626Z,17.28
2024-04-14T08:06:15.814Z,17.35
2024-04-14T08:08:19.090Z,17.44
2024-04-14T08:10:22.150Z,17.54
2024-04-14T08:12:27.233Z,17.62
2024-04-14T08:14:30.495Z,17.68
2024-04-14T08:16:33.652Z,17.76
2024-04-14T08:18:36.859Z,17.84
2024-04-14T08:20:42.214Z,17.91
2024-04-14T08:22:45.261Z,18.00
2024-04-14T08:24:48.360Z,18.03
2024-04-14T08:26:51.486Z,18.08
2024-04-14T08:28:54.559Z,18.15
2024-04-14T08:30:57.755Z,18.18
2024-04-14T08:33:00.971Z,18.24
2024-04-14T08:35:05.938Z,18.29
2024-04-14T08:37:09.071Z,18.31
2024-04-14T08:39:12.148Z,18.35
2024-04-14T08:41:20.151Z,18.43
2024-04-14T08:43:24.078Z,18.53
2024-04-14T08:45:29.710Z,18.61
2024-04-14T08:47:34.515Z,18.66
2024-04-14T08:49:39.885Z,18.76
2024-04-14T08:51:43.807Z,19.00
2024-04-14T08:53:48.140Z,19.00
2024-04-14T08:55:51.254Z,19.01
2024-04-14T08:57:54.366Z,19.14
2024-04-14T09:00:01.582Z,19.25
2024-04-14T09:02:04.787Z,19.28
2024-04-14T09:04:08.562Z,19.27
2024-04-14T09:06:14.921Z,19.29
2024-04-14T09:08:18.132Z,19.34
2024-04-14T09:10:21.216Z,19.40
2024-04-14T09:12:26.589Z,19.46
2024-04-14T09:14:29.675Z,19.51
2024-04-14T09:16:32.964Z,19.58
2024-04-14T09:18:38.501Z,19.67
2024-04-14T09:20:41.593Z,19.71
2024-04-14T09:22:46.981Z,19.80
2024-04-14T09:24:50.093Z,19.84
2024-04-14T09:26:53.246Z,19.92
2024-04-14T09:29:10.279Z,20.11
2024-04-14T09:31:13.709Z,20.12
2024-04-14T09:33:17.221Z,20.14
2024-04-14T09:35:21.215Z,20.29
2024-04-14T09:37:24.494Z,20.29
2024-04-14T09:39:29.798Z,20.30
2024-04-14T09:41:33.956Z,20.34
2024-04-14T09:43:38.391Z,20.37
2024-04-14T09:45:42.690Z,20.45
2024-04-14T09:47:46.305Z,20.51
2024-04-14T09:49:50.414Z,20.56
2024-04-14T09:51:55.260Z,20.68
2024-04-14T09:54:01.157Z,20.75
2024-04-14T09:56:05.305Z,20.81
2024-04-14T09:58:08.398Z,20.90
2024-04-14T10:00:12.724Z,21.16
2024-04-14T10:02:27.611Z,21.16
2024-04-14T10:04:31.864Z,21.22
2024-04-14T10:06:38.991Z,21.31
2024-04-14T10:08:42.453Z,21.35
2024-04-14T10:10:45.904Z,21.62
2024-04-14T10:12:49.172Z,22.15
2024-04-14T10:14:56.362Z,22.14
2024-04-14T10:17:01.646Z,22.17
2024-04-14T10:19:06.876Z,22.15
2024-04-14T10:21:10.182Z,22.19
2024-04-14T10:23:21.070Z,22.27
2024-04-14T10:25:27.767Z,22.29
2024-04-14T10:27:36.332Z,22.32
2024-04-14T10:29:41.146Z,22.30
2024-04-14T10:31:44.247Z,22.34
2024-04-14T10:33:47.455Z,22.41
2024-04-14T10:36:06.251Z,22.44
2024-04-14T10:38:09.373Z,22.42
2024-04-14T10:40:15.077Z,22.47
2024-04-14T10:42:19.376Z,22.64
2024-04-14T10:44:25.476Z,22.64
2024-04-14T10:46:28.917Z,22.60
2024-04-14T10:48:33.906Z,22.77
2024-04-14T10:50:37.056Z,22.79
2024-04-14T10:52:40.148Z,22.96
2024-04-14T10:54:43.361Z,22.98
2024-04-14T10:56:48.730Z,23.10
2024-04-14T10:58:52.208Z,23.43
2024-04-14T11:00:55.364Z,23.55
2024-04-14T11:03:00.622Z,23.61
2024-04-14T11:05:05.012Z,23.68
2024-04-14T11:07:08.717Z,23.75
2024-04-14T11:09:15.838Z,23.93
2024-04-14T11:11:20.050Z,24.05
2024-04-14T11:13:27.345Z,24.05
2024-04-14T11:15:30.534Z,24.36
2024-04-14T11:17:34.176Z,24.40
2024-04-14T11:19:38.673Z,24.65
2024-04-14T11:21:42.170Z,24.68
2024-04-14T11:23:50.311Z,24.75
2024-04-14T11:25:53.358Z,24.79
2024-04-14T11:27:57.659Z,24.79
2024-04-14T11:30:00.813Z,24.83
2024-04-14T11:32:28.550Z,24.97
2024-04-14T11:34:31.740Z,25.35
2024-04-14T11:36:35.651Z,25.55
2024-04-14T11:38:39.531Z,25.59
2024-04-14T11:40:42.674Z,25.83
2024-04-14T11:42:45.833Z,26.02
2024-04-14T11:44:49.056Z,25.99
2024-04-14T11:46:54.221Z,26.04
2024-04-14T11:48:57.365Z,26.18
2024-04-14T11:51:00.908Z,26.22
2024-04-14T11:53:04.024Z,26.36
2024-04-14T11:55:10.330Z,26.43
2024-04-14T11:57:13.469Z,26.79
2024-04-14T11:59:16.602Z,26.82
2024-04-14T12:01:19.960Z,27.51
2024-04-14T12:03:23.399Z,26.02
2024-04-14T12:05:26.468Z,25.59
2024-04-14T12:07:29.569Z,25.48
2024-04-14T12:09:32.719Z,25.60
2024-04-14T12:11:35.916Z,25.95
2024-04-14T12:13:39.083Z,25.93
2024-04-14T12:15:42.237Z,25.67
2024-04-14T12:17:45.333Z,25.71
2024-04-14T12:19:50.025Z,25.90
2024-04-14T12:21:53.312Z,26.12
2024-04-14T12:23:56.423Z,26.25
2024-04-14T12:25:59.570Z,26.27
2024-04-14T12:28:02.820Z,26.21
2024-04-14T12:30:22.983Z,29.19
2024-04-14T12:32:30.244Z,26.73
2024-04-14T12:34:34.103Z,26.52
2024-04-14T12:36:37.271Z,26.70
2024-04-14T12:38:40.558Z,26.83
2024-04-14T12:40:43.700Z,27.10
2024-04-14T12:42:47.296Z,27.19
2024-04-14T12:44:50.525Z,28.69
2024-04-14T12:46:53.734Z,25.76
2024-04-14T12:48:56.939Z,26.07
2024-04-14T12:51:00.062Z,26.48
2024-04-14T12:53:03.230Z,26.69
2024-04-14T12:55:06.485Z,26.88
2024-04-14T12:57:10.379Z,27.11
2024-04-14T12:59:13.485Z,27.43
2024-04-14T13:01:16.739Z,27.50
2024-04-14T13:03:19.887Z,27.48
2024-04-14T13:05:22.968Z,27.03
2024-04-14T13:07:26.063Z,26.02
2024-04-14T13:09:29.228Z,25.84
2024-04-14T13:11:32.413Z,25.71
2024-04-14T13:13:35.556Z,25.56
2024-04-14T13:15:38.868Z,25.56
2024-04-14T13:17:42.198Z,25.51
2024-04-14T13:19:45.307Z,25.39
2024-04-14T13:21:48.472Z,25.11
2024-04-14T13:23:51.611Z,25.21
2024-04-14T13:25:54.702Z,25.41
2024-04-14T13:27:57.838Z,25.56
2024-04-14T13:30:02.514Z,26.10
2024-04-14T13:32:06.223Z,26.76
2024-04-14T13:34:09.321Z,26.99
2024-04-14T13:36:12.443Z,26.89
2024-04-14T13:38:15.697Z,26.94
2024-04-14T13:40:19.041Z,27.04
2024-04-14T13:42:22.148Z,27.12
2024-04-14T13:44:26.217Z,27.17
2024-04-14T13:46:29.716Z,27.18
2024-04-14T13:48:34.543Z,27.41
2024-04-14T13:50:37.624Z,27.51
2024-04-14T13:52:40.718Z,27.53
2024-04-14T13:54:43.917Z,27.63
2024-04-14T13:56:47.020Z,27.48
2024-04-14T13:58:50.137Z,27.41
2024-04-14T14:00:54.550Z,27.47
2024-04-14T14:02:57.724Z,27.42
2024-04-14T14:05:00.805Z,27.25
2024-04-14T14:07:03.961Z,27.12
2024-04-14T14:09:07.319Z,27.13
2024-04-14T14:11:10.581Z,27.11
2024-04-14T14:13:14.674Z,27.05
2024-04-14T14:15:17.812Z,26.99
2024-04-14T14:17:20.923Z,27.04
2024-04-14T14:19:26.857Z,27.11
2024-04-14T14:21:31.631Z,27.21
2024-04-14T14:23:35.247Z,27.48
2024-04-14T14:25:38.847Z,27.38
2024-04-14T14:27:41.993Z,27.26
2024-04-14T14:29:46.303Z,27.18
2024-04-14T14:31:49.418Z,27.07
2024-04-14T14:34:11.907Z,27.02
2024-04-14T14:36:28.491Z,26.97
2024-04-14T14:38:37.914Z,26.87
2024-04-14T14:40:43.184Z,26.93
2024-04-14T14:42:46.350Z,27.05
2024-04-14T14:44:49.844Z,27.17
2024-04-14T14:46:52.914Z,27.35
2024-04-14T14:48:59.174Z,27.48
2024-04-14T14:51:04.148Z,27.66
2024-04-14T14:53:09.487Z,27.73
2024-04-14T14:55:12.646Z,27.83
2024-04-14T14:57:15.775Z,28.07
2024-04-14T14:59:18.909Z,28.28
2024-04-14T15:01:22.429Z,28.48
2024-04-14T15:03:27.003Z,28.53
2024-04-14T15:05:30.096Z,28.47
2024-04-14T15:07:33.238Z,28.64
2024-04-14T15:09:36.361Z,28.71
2024-04-14T15:11:39.434Z,28.63
2024-04-14T15:13:42.556Z,28.18
2024-04-14T15:15:59.729Z,28.07
2024-04-14T15:18:02.931Z,28.04
2024-04-14T15:20:07.349Z,28.00
2024-04-14T15:22:10.604Z,27.76
2024-04-14T15:24:13.776Z,27.11
2024-04-14T15:26:16.865Z,26.84
2024-04-14T15:28:25.415Z,26.59
2024-04-14T15:30:33.578Z,26.61
2024-04-14T15:32:38.832Z,26.59
2024-04-14T15:34:41.946Z,26.50
2024-04-14T15:36:45.065Z,26.46
2024-04-14T15:38:48.211Z,26.47
2024-04-14T15:40:52.205Z,26.43
2024-04-14T15:42:55.682Z,26.50
2024-04-14T15:44:58.802Z,26.50
2024-04-14T15:47:02.012Z,26.42
2024-04-14T15:49:05.212Z,26.37
2024-04-14T15:51:17.676Z,26.35
2024-04-14T15:53:23.379Z,26.33
2024-04-14T15:55:27.930Z,26.14
2024-04-14T15:57:35.869Z,25.92
2024-04-14T15:59:39.631Z,25.87
2024-04-14T16:01:45.232Z,25.84
2024-04-14T16:03:48.521Z,25.92
2024-04-14T16:05:58.742Z,26.01
2024-04-14T16:08:01.931Z,26.03
2024-04-14T16:10:05.626Z,26.04
2024-04-14T16:12:08.736Z,26.07
2024-04-14T16:14:12.393Z,26.22
2024-04-14T16:16:16.698Z,26.31
2024-04-14T16:18:20.492Z,26.28
2024-04-14T16:20:23.633Z,26.15
2024-04-14T16:22:26.729Z,26.21
2024-04-14T16:24:29.930Z,26.27
2024-04-14T16:26:33.056Z,26.25
2024-04-14T16:28:36.223Z,26.11
2024-04-14T16:30:39.378Z,25.84
2024-04-14T16:32:42.861Z,25.48
2024-04-14T16:34:46.054Z,25.24
2024-04-14T16:36:49.237Z,25.05
2024-04-14T16:38:52.400Z,24.91
2024-04-14T16:40:56.768Z,24.78
2024-04-14T16:42:59.853Z,24.72
2024-04-14T16:45:03.009Z,24.73
2024-04-14T16:47:06.135Z,24.74
2024-04-14T16:49:09.402Z,24.72
2024-04-14T16:51:12.640Z,24.66
2024-04-14T16:53:15.772Z,24.55
2024-04-14T16:55:19.784Z,24.47
2024-04-14T16:57:22.987Z,24.34
2024-04-14T16:59:26.085Z,24.21
2024-04-14T17:01:29.542Z,24.11
2024-04-14T17:03:32.768Z,24.01
2024-04-14T17:05:35.943Z,23.90
2024-04-14T17:07:39.038Z,23.81
2024-04-14T17:09:42.222Z,23.76
2024-04-14T17:11:45.346Z,23.73
2024-04-14T17:13:48.460Z,23.72
2024-04-14T17:15:51.798Z,23.71
2024-04-14T17:17:55.158Z,23.68
2024-04-14T17:19:58.339Z,23.66
2024-04-14T17:22:01.468Z,23.62
2024-04-14T17:24:04.619Z,23.57
2024-04-14T17:26:07.791Z,23.52
2024-04-14T17:28:10.940Z,23.43
2024-04-14T17:30:14.098Z,23.32
2024-04-14T17:32:18.646Z,23.16
2024-04-14T17:34:22.189Z,22.95
2024-04-14T17:36:27.035Z,22.80
2024-04-14T17:38:30.136Z,22.64
2024-04-14T17:40:33.251Z,22.50
2024-04-14T17:42:36.376Z,22.35
2024-04-14T17:44:40.248Z,22.27
2024-04-14T17:46:43.335Z,22.09
2024-04-14T17:48:46.470Z,21.96
2024-04-14T17:50:50.819Z,21.77
2024-04-14T17:52:53.889Z,21.69
2024-04-14T17:54:57.017Z,21.60
2024-04-14T17:57:00.963Z,21.51
2024-04-14T17:59:08.598Z,21.40
2024-04-14T18:01:12.319Z,21.30
2024-04-14T18:03:15.529Z,21.19
2024-04-14T18:05:18.666Z,21.12
2024-04-14T18:07:21.748Z,21.05
2024-04-14T18:09:24.879Z,20.97
2024-04-14T18:11:28.058Z,20.90
2024-04-14T18:13:31.222Z,20.83
2024-04-14T18:15:35.397Z,20.64
2024-04-14T18:17:38.534Z,20.46
2024-04-14T18:19:41.695Z,20.30
2024-04-14T18:21:44.808Z,20.17
2024-04-14T18:23:47.963Z,20.05
2024-04-14T18:25:51.180Z,19.88
2024-04-14T18:27:54.300Z,19.77
2024-04-14T18:29:57.473Z,19.71
2024-04-14T18:32:00.709Z,19.60
2024-04-14T18:34:03.944Z,19.47
2024-04-14T18:36:14.621Z,19.39
2024-04-14T18:38:21.947Z,19.31
2024-04-14T18:40:25.035Z,19.27
2024-04-14T18:42:28.975Z,19.22
2024-04-14T18:44:32.085Z,19.12
2024-04-14T18:46:35.208Z,19.05
2024-04-14T18:48:41.244Z,18.97
2024-04-14T18:50:44.451Z,18.88
2024-04-14T18:52:47.561Z,18.81
2024-04-14T18:54:50.685Z,18.75
2024-04-14T18:56:54.191Z,18.66
2024-04-14T18:58:57.448Z,18.52
2024-04-14T19:01:00.890Z,18.47
2024-04-14T19:03:03.999Z,18.38
2024-04-14T19:05:07.521Z,18.22
2024-04-14T19:07:10.716Z,18.14
2024-04-14T19:09:14.315Z,18.04
2024-04-14T19:11:17.518Z,17.96
2024-04-14T19:13:20.654Z,17.89
2024-04-14T19:15:23.818Z,17.82
2024-04-14T19:17:29.257Z,17.76
2024-04-14T19:19:32.409Z,17.74
2024-04-14T19:21:35.550Z,17.73
2024-04-14T19:23:38.701Z,17.70
2024-04-14T19:25:41.772Z,17.68
2024-04-14T19:27:44.940Z,17.65
2024-04-14T19:29:48.014Z,17.66
2024-04-14T19:31:51.201Z,17.63
2024-04-14T19:33:54.484Z,17.59
2024-04-14T19:35:58.598Z,17.50
2024-04-14T19:38:02.048Z,17.44
2024-04-14T19:40:08.715Z,17.41
2024-04-14T19:42:12.056Z,17.38
2024-04-14T19:44:15.206Z,17.34
2024-04-14T19:46:18.311Z,17.29
2024-04-14T19:48:21.487Z,17.24
2024-04-14T19:50:24.916Z,17.15
2024-04-14T19:52:28.138Z,17.08
2024-04-14T19:54:31.298Z,17.06
2024-04-14T19:56:34.380Z,16.93
2024-04-14T19:58:37.530Z,16.75
2024-04-14T20:00:41.496Z,16.74
2024-04-14T20:02:46.028Z,16.72
2024-04-14T20:04:49.257Z,16.69
2024-04-14T20:06:52.395Z,16.62
2024-04-14T20:08:56.131Z,16.60
2024-04-14T20:10:59.323Z,16.54
2024-04-14T20:13:02.537Z,16.52
2024-04-14T20:15:06.417Z,16.51
2024-04-14T20:17:09.525Z,16.38
2024-04-14T20:19:12.926Z,16.35
2024-04-14T20:21:16.024Z,16.33
2024-04-14T20:23:19.115Z,16.29
2024-04-14T20:25:22.323Z,16.27
2024-04-14T20:27:26.283Z,16.30
2024-04-14T20:29:30.493Z,16.31
2024-04-14T20:31:33.585Z,16.31
2024-04-14T20:33:36.780Z,16.27
2024-04-14T20:35:39.890Z,16.20
2024-04-14T20:37:42.955Z,16.15
2024-04-14T20:39:46.070Z,16.10
2024-04-14T20:41:49.217Z,16.05
2024-04-14T20:43:52.929Z,15.99
2024-04-14T20:45:57.167Z,15.90
2024-04-14T20:48:00.435Z,15.81
2024-04-14T20:50:03.899Z,15.74
2024-04-14T20:52:07.651Z,15.68
2024-04-14T20:54:11.695Z,15.65
2024-04-14T20:56:14.802Z,15.60
2024-04-14T20:58:18.626Z,15.53
2024-04-14T21:00:21.753Z,15.49
2024-04-14T21:02:24.877Z,15.48
2024-04-14T21:04:35.541Z,15.43
2024-04-14T21:06:47.211Z,15.40
2024-04-14T21:08:50.325Z,15.36
2024-04-14T21:11:09.172Z,15.34
2024-04-14T21:13:15.015Z,15.31
2024-04-14T21:15:20.165Z,15.28
2024-04-14T21:17:24.709Z,15.26
2024-04-14T21:19:27.833Z,15.24
2024-04-14T21:21:30.984Z,15.21
2024-04-14T21:23:34.372Z,15.18
2024-04-14T21:25:38.028Z,15.16
2024-04-14T21:27:41.171Z,15.12
2024-04-14T21:29:44.264Z,15.05
2024-04-14T21:31:47.535Z,14.96
2024-04-14T21:33:50.833Z,14.93
2024-04-14T21:35:54.612Z,14.88
2024-04-14T21:37:57.723Z,14.81
2024-04-14T21:40:00.863Z,14.78
2024-04-14T21:42:07.241Z,14.74
2024-04-14T21:44:10.366Z,14.76
2024-04-14T21:46:13.505Z,14.78
2024-04-14T21:48:16.772Z,14.82
2024-04-14T21:50:19.996Z,14.80
2024-04-14T21:52:23.081Z,14.76
2024-04-14T21:54:26.126Z,14.73
2024-04-14T21:56:32.976Z,14.67
2024-04-14T21:58:37.664Z,14.62
2024-04-14T22:00:40.897Z,14.57
2024-04-14T22:02:44.050Z,14.53
2024-04-14T22:04:48.669Z,14.51
2024-04-14T22:06:51.825Z,14.46
2024-04-14T22:08:54.904Z,14.41
2024-04-14T22:11:00.205Z,14.37
2024-04-14T22:13:03.833Z,14.36
2024-04-14T22:15:07.414Z,14.33
2024-04-14T22:17:12.047Z,14.31
2024-04-14T22:19:19.227Z,14.27
2024-04-14T22:21:22.369Z,14.24
2024-04-14T22:23:25.553Z,14.25
2024-04-14T22:25:28.683Z,14.26
2024-04-14T22:27:32.166Z,14.25
2024-04-14T22:29:35.229Z,14.23
2024-04-14T22:31:38.393Z,14.26
2024-04-14T22:33:44.141Z,14.29
2024-04-14T22:35:47.722Z,14.33
2024-04-14T22:37:50.853Z,14.27
2024-04-14T22:39:53.989Z,14.20
2024-04-14T22:41:57.213Z,14.15
2024-04-14T22:44:00.337Z,14.18
2024-04-14T22:46:03.524Z,14.22
2024-04-14T22:48:06.947Z,14.21
2024-04-14T22:50:10.698Z,14.23
2024-04-14T22:52:13.828Z,14.21
2024-04-14T22:54:17.553Z,14.17
2024-04-14T22:56:21.062Z,14.13
2024-04-14T22:58:24.485Z,14.08
2024-04-14T23:00:27.633Z,14.05
2024-04-14T23:02:30.774Z,14.00
2024-04-14T23:04:33.994Z,13.99
2024-04-14T23:06:37.111Z,13.99
2024-04-14T23:08:40.829Z,13.99
2024-04-14T23:10:43.983Z,13.99
2024-04-14T23:12:47.186Z,13.99
2024-04-14T23:14:50.410Z,13.96
2024-04-14T23:16:53.497Z,13.95
2024-04-14T23:19:00.055Z,13.94
2024-04-14T23:21:03.264Z,13.95
2024-04-14T23:23:06.368Z,13.97
2024-04-14T23:25:09.528Z,13.98
2024-04-14T23:27:12.881Z,14.06
2024-04-14T23:29:16.001Z,14.09
2024-04-14T23:31:20.211Z,14.04
2024-04-14T23:33:23.410Z,14.02
2024-04-14T23:35:26.536Z,13.98
2024-04-14T23:37:29.656Z,13.92
2024-04-14T23:39:32.804Z,13.91
2024-04-14T23:41:35.898Z,13.92
2024-04-14T23:43:39.027Z,13.90
2024-04-14T23:45:43.900Z,13.84
2024-04-14T23:47:47.197Z,13.83
2024-04-14T23:49:50.325Z,13.80
2024-04-14T23:51:53.492Z,13.75
2024-04-14T23:53:56.616Z,13.72
2024-04-14T23:56:00.354Z,13.71
2024-04-14T23:58:03.485Z,13.71
